createdAt,value
2022-10-03T00:02:09.703Z,98535.34
2022-10-03T00:07:20.413Z,98546.38
2022-10-03T00:13:08.763Z,98542.53
2022-10-03T00:18:22.588Z,98558.88
2022-10-03T00:23:29.342Z,98566.63
2022-10-03T00:28:52.983Z,98560.88
2022-10-03T00:33:57.848Z,98574.19
2022-10-03T00:39:33.758Z,98563.69
2022-10-03T00:44:38.318Z,98579.13
2022-10-03T00:50:06.742Z,98579.22
2022-10-03T00:55:50.640Z,98596.38
2022-10-03T01:00:58.584Z,98592.31
2022-10-03T01:06:19.521Z,98586.09
2022-10-03T01:11:42.291Z,98590.41
2022-10-03T01:16:53.613Z,98590.84
2022-10-03T01:22:22.190Z,98583.94
2022-10-03T01:28:02.494Z,98589.38
2022-10-03T01:33:16.132Z,98587.84
2022-10-03T01:38:45.701Z,98582.38
2022-10-03T01:44:13.374Z,98580.03
2022-10-03T01:49:41.499Z,98591.56
2022-10-03T01:54:52.580Z,98584.38
2022-10-03T02:00:15.904Z,98584.56
2022-10-03T02:05:36.451Z,98574.50
2022-10-03T02:10:51.015Z,98594.72
2022-10-03T02:16:08.246Z,98587.53
2022-10-03T02:21:16.201Z,98605.13
2022-10-03T02:26:45.839Z,98609.19
2022-10-03T02:32:07.028Z,98615.09
2022-10-03T02:37:20.711Z,98616.75
2022-10-03T02:42:37.430Z,98618.34
2022-10-03T02:48:20.127Z,98615.91
2022-10-03T02:53:42.045Z,98623.78
2022-10-03T02:58:46.774Z,98630.00
2022-10-03T03:04:37.500Z,98633.09
2022-10-03T03:10:08.504Z,98638.41
2022-10-03T03:15:38.323Z,98632.09
2022-10-03T03:20:43.088Z,98643.66
2022-10-03T03:26:06.121Z,98648.88
2022-10-03T03:31:21.260Z,98647.59
2022-10-03T03:36:54.426Z,98652.91
2022-10-03T03:42:17.159Z,98658.94
2022-10-03T03:47:46.856Z,98670.66
2022-10-03T03:53:03.521Z,98666.81
2022-10-03T03:58:14.086Z,98676.25
2022-10-03T04:03:34.695Z,98660.06
2022-10-03T04:08:45.964Z,98658.25
2022-10-03T04:13:57.716Z,98662.88
2022-10-03T04:19:08.042Z,98674.09
2022-10-03T04:24:28.444Z,98668.16
2022-10-03T04:29:57.749Z,98669.25
2022-10-03T04:35:31.353Z,98679.41
2022-10-03T04:40:44.045Z,98675.53
2022-10-03T04:45:45.928Z,98665.50
2022-10-03T04:51:14.133Z,98667.00
2022-10-03T04:56:22.239Z,98668.97
2022-10-03T05:01:29.923Z,98663.94
2022-10-03T05:07:09.409Z,98672.16
2022-10-03T05:12:41.139Z,98682.63
2022-10-03T05:18:25.949Z,98686.56
2022-10-03T05:23:39.311Z,98693.66
2022-10-03T05:28:45.443Z,98697.44
2022-10-03T05:34:00.290Z,98697.91
2022-10-03T05:39:34.891Z,98711.63
2022-10-03T05:44:59.333Z,98716.66
2022-10-03T05:50:38.327Z,98721.19
2022-10-03T05:55:50.868Z,98721.19
2022-10-03T06:01:26.719Z,98736.28
2022-10-03T06:06:59.655Z,98744.09
2022-10-03T06:12:14.327Z,98741.75
2022-10-03T06:17:46.975Z,98758.81
2022-10-03T06:23:22.480Z,98749.91
2022-10-03T06:28:39.252Z,98756.66
2022-10-03T06:34:22.348Z,98773.69
2022-10-03T06:39:58.138Z,98768.16
2022-10-03T06:45:30.814Z,98772.09
2022-10-03T06:51:10.767Z,98784.75
2022-10-03T06:56:33.377Z,98792.56
2022-10-03T07:01:44.416Z,98783.25
2022-10-03T07:07:14.208Z,98786.31
2022-10-03T07:12:34.428Z,98791.91
2022-10-03T07:18:01.263Z,98798.38
2022-10-03T07:23:27.450Z,98797.00
2022-10-03T07:29:01.301Z,98801.69
2022-10-03T07:34:18.337Z,98807.81
2022-10-03T07:39:42.330Z,98819.56
2022-10-03T07:44:47.202Z,98806.31
2022-10-03T07:50:22.473Z,98820.22
2022-10-03T07:55:49.351Z,98818.25
2022-10-03T08:00:51.286Z,98830.69
2022-10-03T08:06:11.349Z,98840.34
2022-10-03T08:11:21.314Z,98829.72
2022-10-03T08:16:35.267Z,98828.16
2022-10-03T08:21:58.064Z,98844.59
2022-10-03T08:27:32.790Z,98836.47
2022-10-03T08:32:48.427Z,98838.91
2022-10-03T08:38:10.879Z,98848.31
2022-10-03T08:43:50.631Z,98840.41
2022-10-03T08:49:01.966Z,98854.41
2022-10-03T08:54:14.459Z,98845.91
2022-10-03T08:59:28.736Z,98842.69
2022-10-03T09:05:07.422Z,98849.66
2022-10-03T09:10:35.434Z,98850.53
2022-10-03T09:16:16.175Z,98864.19
2022-10-03T09:21:26.338Z,98873.22
2022-10-03T09:26:51.873Z,98858.16
2022-10-03T09:32:26.023Z,98864.25
2022-10-03T09:37:49.426Z,98863.78
2022-10-03T09:42:59.971Z,98857.53
2022-10-03T09:48:43.060Z,98848.63
2022-10-03T09:54:09.549Z,98843.50
2022-10-03T09:59:29.291Z,98839.84
2022-10-03T10:04:54.139Z,98837.63
2022-10-03T10:10:48.979Z,98852.19
2022-10-03T10:16:20.864Z,98861.53
2022-10-03T10:21:25.444Z,98860.22
2022-10-03T10:26:51.125Z,98848.66
2022-10-03T10:32:29.830Z,98857.22
2022-10-03T10:37:45.404Z,98853.19
2022-10-03T10:43:25.638Z,98851.53
2022-10-03T10:49:19.734Z,98847.72
2022-10-03T10:54:27.692Z,98849.56
2022-10-03T11:00:08.091Z,98846.47
2022-10-03T11:05:44.150Z,98851.00
2022-10-03T11:11:13.572Z,98850.81
2022-10-03T11:16:35.414Z,98853.19
2022-10-03T11:21:46.380Z,98854.91
2022-10-03T11:27:22.281Z,98863.00
2022-10-03T11:32:41.987Z,98865.25
2022-10-03T11:37:51.333Z,98859.78
2022-10-03T11:43:16.583Z,98868.72
2022-10-03T11:48:33.250Z,98863.69
2022-10-03T11:54:07.629Z,98860.94
2022-10-03T11:59:44.823Z,98859.75
2022-10-03T12:05:00.660Z,98869.50
2022-10-03T12:10:19.359Z,98873.09
2022-10-03T12:15:35.918Z,98867.44
2022-10-03T12:21:02.145Z,98865.13
2022-10-03T12:26:08.130Z,98858.59
2022-10-03T12:31:31.163Z,98865.75
2022-10-03T12:36:54.131Z,98875.09
2022-10-03T12:42:03.407Z,98878.56
2022-10-03T12:47:43.968Z,98873.41
2022-10-03T12:53:07.713Z,98870.59
2022-10-03T12:58:27.805Z,98860.44
2022-10-03T13:03:39.509Z,98864.28
2022-10-03T13:08:44.659Z,98873.16
2022-10-03T13:14:07.699Z,98878.53
2022-10-03T13:19:20.600Z,98877.56
2022-10-03T13:24:37.486Z,98874.00
2022-10-03T13:29:43.329Z,98861.88
2022-10-03T13:34:57.233Z,98863.13
2022-10-03T13:40:09.275Z,98848.72
2022-10-03T13:45:26.700Z,98856.63
2022-10-03T13:50:31.067Z,98852.34
2022-10-03T13:55:58.095Z,98848.84
2022-10-03T14:01:25.916Z,98848.84
2022-10-03T14:06:38.265Z,98841.22
2022-10-03T14:11:47.937Z,98850.63
2022-10-03T14:17:37.034Z,98849.09
2022-10-03T14:22:54.520Z,98856.47
2022-10-03T14:28:04.617Z,98863.38
2022-10-03T14:33:19.860Z,98855.50
2022-10-03T14:38:58.344Z,98851.16
2022-10-03T14:44:12.659Z,98846.44
2022-10-03T14:49:52.383Z,98855.91
2022-10-03T14:54:50.605Z,98855.25
2022-10-03T14:59:58.008Z,98855.28
2022-10-03T15:05:24.309Z,98845.91
2022-10-03T15:10:29.199Z,98862.66
2022-10-03T15:15:39.615Z,98862.22
2022-10-03T15:20:44.291Z,98860.66
2022-10-03T15:25:53.913Z,98857.44
2022-10-03T15:30:58.116Z,98858.56
2022-10-03T15:36:09.351Z,98863.59
2022-10-03T15:41:27.033Z,98849.03
2022-10-03T15:46:39.282Z,98849.00
2022-10-03T15:51:44.005Z,98843.16
2022-10-03T15:56:49.606Z,98848.56
2022-10-03T16:01:55.723Z,98836.78
2022-10-03T16:07:03.550Z,98852.47
2022-10-03T16:12:20.425Z,98842.28
2022-10-03T16:17:46.541Z,98835.53
2022-10-03T16:22:54.142Z,98838.22
2022-10-03T16:28:03.959Z,98835.81
2022-10-03T16:33:16.752Z,98842.81
2022-10-03T16:38:24.975Z,98836.47
2022-10-03T16:43:30.818Z,98842.59
2022-10-03T16:48:53.294Z,98847.97
2022-10-03T16:53:56.806Z,98849.53
2022-10-03T16:59:10.721Z,98852.59
2022-10-03T17:04:20.118Z,98862.81
2022-10-03T17:09:44.039Z,98865.25
2022-10-03T17:14:50.982Z,98859.00
2022-10-03T17:20:11.291Z,98858.25
2022-10-03T17:25:19.337Z,98864.47
2022-10-03T17:30:23.942Z,98862.50
2022-10-03T17:35:58.215Z,98861.34
2022-10-03T17:41:00.494Z,98868.59
2022-10-03T17:46:16.092Z,98868.97
2022-10-03T17:51:31.661Z,98874.38
2022-10-03T17:56:35.188Z,98862.53
2022-10-03T18:01:43.122Z,98873.44
2022-10-03T18:06:57.798Z,98867.34
2022-10-03T18:12:25.749Z,98873.13
2022-10-03T18:17:45.106Z,98869.50
2022-10-03T18:22:49.738Z,98877.88
2022-10-03T18:28:27.660Z,98877.03
2022-10-03T18:33:34.873Z,98877.47
2022-10-03T18:38:37.506Z,98877.72
2022-10-03T18:43:45.735Z,98883.13
2022-10-03T18:54:39.546Z,98886.00
2022-10-03T18:59:54.047Z,98879.94
2022-10-03T19:05:07.279Z,98871.75
2022-10-03T19:10:18.414Z,98866.19
2022-10-03T19:15:27.729Z,98879.38
2022-10-03T19:20:38.425Z,98873.22
2022-10-03T19:25:43.973Z,98865.75
2022-10-03T19:30:57.364Z,98871.56
2022-10-03T19:36:04.858Z,98871.16
2022-10-03T19:41:19.457Z,98867.63
2022-10-03T19:46:52.084Z,98864.06
2022-10-03T19:52:15.984Z,98872.25
2022-10-03T19:57:22.517Z,98862.06
2022-10-03T20:02:27.384Z,98861.16
2022-10-03T20:07:43.425Z,98865.84
2022-10-03T20:12:49.940Z,98863.44
2022-10-03T20:18:01.942Z,98869.28
2022-10-03T20:23:06.976Z,98859.50
2022-10-03T20:28:20.627Z,98864.25
2022-10-03T20:33:28.199Z,98859.19
2022-10-03T20:38:53.231Z,98862.78
2022-10-03T20:44:47.248Z,98862.53
2022-10-03T20:49:58.409Z,98864.19
2022-10-03T20:55:03.200Z,98861.56
2022-10-03T21:00:10.720Z,98863.88
2022-10-03T21:05:47.926Z,98862.16
2022-10-03T21:11:02.297Z,98853.69
2022-10-03T21:16:21.197Z,98858.84
2022-10-03T21:21:38.415Z,98856.41
2022-10-03T21:26:55.280Z,98858.28
2022-10-03T21:32:12.244Z,98860.59
2022-10-03T21:37:30.318Z,98854.72
2022-10-03T21:43:10.900Z,98844.94
2022-10-03T21:48:27.984Z,98847.28
2022-10-03T21:54:14.635Z,98836.03
2022-10-03T21:59:40.966Z,98850.31
2022-10-03T22:04:49.498Z,98844.34
2022-10-03T22:09:56.114Z,98836.53
2022-10-03T22:15:13.667Z,98846.41
2022-10-03T22:20:33.943Z,98840.94
2022-10-03T22:25:57.851Z,98843.25
2022-10-03T22:31:02.780Z,98840.22
2022-10-03T22:36:04.858Z,98841.69
2022-10-03T22:41:15.676Z,98834.78
2022-10-03T22:46:26.061Z,98834.72
2022-10-03T22:51:28.669Z,98830.09
2022-10-03T22:56:30.473Z,98833.28
2022-10-03T23:01:34.762Z,98839.50
2022-10-03T23:06:53.293Z,98827.84
2022-10-03T23:11:57.638Z,98837.97
2022-10-03T23:17:13.880Z,98836.75
2022-10-03T23:22:18.904Z,98830.91
2022-10-03T23:28:00.388Z,98839.88
2022-10-03T23:33:02.137Z,98835.50
2022-10-03T23:38:33.321Z,98837.81
2022-10-03T23:43:44.254Z,98835.81
2022-10-03T23:48:58.470Z,98836.97
2022-10-03T23:54:04.786Z,98834.66
2022-10-03T23:59:15.802Z,98826.28
